Cadillac, Michigan
Current Conditions -  °F | °C
As of 3:14 AM on Monday 24 Nov 2014 (Local Time) from KCAD Reporting Station
Moderate Rain Moderate Rain  
Wind Chill:   Ceiling: 500
Heat Index:   Visibility: 4mi
Dew Point:   Wind: 0mph
Humidity: 99%   Direction: NA
Pressure: 29"   Gusts: NA
Location:  44.26°N, 85.4°W
Report Text: KCAD 240814Z AUTO 00000KT 4SM RA OVC005 06/06 A2900 RMK AO2 T00680066
Loading
Personal Weather Stations






























Interactive Weather Map New forecast layout! Learn more

10-Day Weather Forecast

Advertisements
Track Severe Weather on mobile